Time;durP1;ratioP1;P1;durP2;ratioP2;P2;SDS_P1;SDS_P2;PMS_P1;PMS_P2;Temp;Humidity;BMP_temperature;BMP_pressure;BME280_temperature;BME280_humidity;BME280_pressure;Samples;Min_cycle;Max_cycle;Signal;HPM_P1;HPM_P2
2022/10/25 00:01:22;;;;;;;;;;;23.70;60.50;;;;;;1495154;77;1936;-58
2022/10/25 00:03:24;;;;;;;;;;;23.60;60.50;;;;;;1495162;77;1558;-57
2022/10/25 00:05:25;;;;;;;;;;;23.60;60.50;;;;;;1502427;77;1149;-57
2022/10/25 00:07:27;;;;;;;;;;;23.70;60.50;;;;;;1508295;77;744;-57
2022/10/25 00:09:29;;;;;;;;;;;23.70;60.50;;;;;;1497615;77;717;-58
2022/10/25 00:11:31;;;;;;;;;;;23.70;60.30;;;;;;1498594;77;660;-58
2022/10/25 00:13:33;;;;;;;;;;;23.60;60.50;;;;;;1503449;77;664;-54
2022/10/25 00:15:35;;;;;;;;;;;23.70;60.60;;;;;;1504944;78;1137;-55
2022/10/25 00:17:37;;;;;;;;;;;23.70;60.30;;;;;;1501562;77;1612;-58
2022/10/25 00:19:39;;;;;;;;;;;23.70;60.30;;;;;;1496367;77;714;-57
2022/10/25 00:21:40;;;;;;;;;;;23.70;60.20;;;;;;1503070;78;1949;-58
2022/10/25 00:23:42;;;;;;;;;;;23.70;60.20;;;;;;1498209;77;746;-58
2022/10/25 00:25:44;;;;;;;;;;;23.60;60.00;;;;;;1498759;77;1152;-58
2022/10/25 00:27:46;;;;;;;;;;;23.60;60.30;;;;;;1506949;77;669;-57
2022/10/25 00:29:48;;;;;;;;;;;23.50;60.50;;;;;;1501015;77;757;-55
2022/10/25 00:31:50;;;;;;;;;;;23.50;60.30;;;;;;1492067;78;1489;-57
2022/10/25 00:33:52;;;;;;;;;;;23.50;60.50;;;;;;1493581;77;742;-57
2022/10/25 00:35:54;;;;;;;;;;;23.50;60.40;;;;;;1502884;77;1132;-58
2022/10/25 00:37:55;;;;;;;;;;;23.60;60.30;;;;;;1502253;77;764;-58
2022/10/25 00:39:57;;;;;;;;;;;23.60;60.20;;;;;;1491982;78;787;-57
2022/10/25 00:41:59;;;;;;;;;;;23.50;60.30;;;;;;1504923;77;1961;-55
2022/10/25 00:44:19;;;;;;;;;;;23.50;60.40;;;;;;1494469;79;660;-54
2022/10/25 00:46:22;;;;;;;;;;;23.60;60.20;;;;;;1500410;77;1699;-58
2022/10/25 00:48:24;;;;;;;;;;;23.60;60.20;;;;;;1504961;79;711;-58
2022/10/25 00:50:28;;;;;;;;;;;23.50;60.30;;;;;;1519117;77;862;-58
2022/10/25 00:52:31;;;;;;;;;;;23.60;60.40;;;;;;1509104;77;748;-59
2022/10/25 00:54:34;;;;;;;;;;;23.60;60.30;;;;;;1500598;77;824;-58
2022/10/25 00:56:37;;;;;;;;;;;23.70;60.20;;;;;;1506301;77;1817;-56
2022/10/25 00:58:39;;;;;;;;;;;23.60;60.00;;;;;;1514730;77;775;-58
2022/10/25 01:00:41;;;;;;;;;;;23.60;60.00;;;;;;1496706;77;1601;-58
2022/10/25 01:02:43;;;;;;;;;;;23.70;60.20;;;;;;1502983;78;1941;-56
2022/10/25 01:04:45;;;;;;;;;;;23.60;60.00;;;;;;1505254;77;721;-58
2022/10/25 01:06:47;;;;;;;;;;;23.60;60.00;;;;;;1498156;77;1130;-58
2022/10/25 01:08:49;;;;;;;;;;;23.60;60.30;;;;;;1502032;77;743;-58
2022/10/25 01:10:51;;;;;;;;;;;23.60;60.40;;;;;;1516174;77;775;-58
2022/10/25 01:12:53;;;;;;;;;;;23.60;60.30;;;;;;1509871;77;762;-57
2022/10/25 01:14:55;;;;;;;;;;;23.60;60.30;;;;;;1504302;79;1744;-58
2022/10/25 01:16:58;;;;;;;;;;;23.50;60.30;;;;;;1503799;77;1148;-58
2022/10/25 01:19:08;;;;;;;;;;;23.50;60.50;;;;;;1502677;77;1032;-55
2022/10/25 01:21:11;;;;;;;;;;;23.50;60.70;;;;;;1473394;77;1071;-58
2022/10/25 01:23:21;;;;;;;;;;;23.60;60.50;;;;;;1505041;77;1937;-57
2022/10/25 01:25:34;;;;;;;;;;;23.60;60.30;;;;;;1510998;77;1492;-57
2022/10/25 01:27:49;;;;;;;;;;;23.70;60.20;;;;;;1503112;77;1885;-57
2022/10/25 01:29:55;;;;;;;;;;;23.70;60.10;;;;;;1494175;77;1926;-55
2022/10/25 01:31:57;;;;;;;;;;;23.60;60.00;;;;;;1502874;77;744;-57
2022/10/25 01:34:06;;;;;;;;;;;23.70;60.10;;;;;;1510991;77;718;-54
2022/10/25 01:36:22;;;;;;;;;;;23.70;60.00;;;;;;1507431;77;1132;-58
2022/10/25 01:38:40;;;;;;;;;;;23.70;60.00;;;;;;1504668;77;744;-55
2022/10/25 01:40:50;;;;;;;;;;;23.70;59.90;;;;;;1500869;77;792;-55
2022/10/25 01:42:56;;;;;;;;;;;23.60;59.80;;;;;;1501270;77;1933;-55
2022/10/25 01:45:09;;;;;;;;;;;23.70;59.90;;;;;;1495874;77;1823;-54
2022/10/25 01:47:13;;;;;;;;;;;23.70;59.90;;;;;;1485152;77;1683;-57
2022/10/25 01:49:16;;;;;;;;;;;23.70;59.90;;;;;;1498971;77;748;-56
2022/10/25 01:51:18;;;;;;;;;;;23.70;59.80;;;;;;1497368;77;791;-58
2022/10/25 01:53:20;;;;;;;;;;;23.70;59.80;;;;;;1503213;77;780;-58
2022/10/25 01:55:24;;;;;;;;;;;23.70;59.80;;;;;;1502589;77;1531;-57
2022/10/25 01:57:43;;;;;;;;;;;23.60;59.90;;;;;;1499570;77;1794;-57
2022/10/25 01:59:47;;;;;;;;;;;23.60;60.10;;;;;;1500950;77;777;-56
2022/10/25 02:02:00;;;;;;;;;;;23.60;60.00;;;;;;1492548;77;769;-58
2022/10/25 02:04:03;;;;;;;;;;;23.60;60.00;;;;;;1505360;77;1939;-58
2022/10/25 02:06:19;;;;;;;;;;;23.60;60.10;;;;;;1494126;77;1170;-58
2022/10/25 02:08:22;;;;;;;;;;;23.60;60.20;;;;;;1508857;77;1909;-57
2022/10/25 02:10:35;;;;;;;;;;;23.50;60.40;;;;;;1504224;77;1842;-58
2022/10/25 02:12:41;;;;;;;;;;;23.50;60.50;;;;;;1493670;77;699;-58
2022/10/25 02:14:45;;;;;;;;;;;23.40;60.60;;;;;;1500224;77;1793;-58
2022/10/25 02:16:56;;;;;;;;;;;23.30;60.60;;;;;;1504432;77;1996;-55
2022/10/25 02:19:01;;;;;;;;;;;23.40;60.70;;;;;;1512031;77;754;-58
2022/10/25 02:21:03;;;;;;;;;;;23.50;60.70;;;;;;1506993;77;792;-57
2022/10/25 02:23:05;;;;;;;;;;;23.50;60.60;;;;;;1502182;77;1923;-54
2022/10/25 02:25:08;;;;;;;;;;;23.60;60.40;;;;;;1497879;77;1643;-58
2022/10/25 02:27:10;;;;;;;;;;;23.60;60.40;;;;;;1504104;77;1114;-58
2022/10/25 02:29:12;;;;;;;;;;;23.60;60.30;;;;;;1498156;77;951;-55
2022/10/25 02:31:15;;;;;;;;;;;23.60;60.20;;;;;;1501111;77;741;-56
2022/10/25 02:33:17;;;;;;;;;;;23.60;60.30;;;;;;1502765;77;1803;-57
2022/10/25 02:35:19;;;;;;;;;;;23.50;60.30;;;;;;1503203;77;692;-57
2022/10/25 02:37:21;;;;;;;;;;;23.60;60.40;;;;;;1511426;77;1120;-54
2022/10/25 02:39:23;;;;;;;;;;;23.40;60.40;;;;;;1508505;77;775;-58
2022/10/25 02:41:25;;;;;;;;;;;23.30;60.60;;;;;;1507657;77;813;-57
2022/10/25 02:43:27;;;;;;;;;;;23.30;60.80;;;;;;1498790;77;1954;-54
2022/10/25 02:45:29;;;;;;;;;;;23.20;60.90;;;;;;1505030;77;1152;-58
2022/10/25 02:47:31;;;;;;;;;;;23.20;61.10;;;;;;1505112;77;798;-58
2022/10/25 02:49:32;;;;;;;;;;;23.20;61.20;;;;;;1512640;77;791;-57
2022/10/25 02:51:34;;;;;;;;;;;23.20;61.30;;;;;;1506446;77;1536;-57
2022/10/25 02:53:36;;;;;;;;;;;23.10;61.40;;;;;;1508356;77;754;-57
2022/10/25 02:55:38;;;;;;;;;;;23.10;61.50;;;;;;1514890;77;1190;-57
2022/10/25 02:57:40;;;;;;;;;;;23.10;61.60;;;;;;1513102;77;788;-55
2022/10/25 02:59:42;;;;;;;;;;;23.10;61.70;;;;;;1509042;77;735;-55
2022/10/25 03:01:44;;;;;;;;;;;23.10;61.80;;;;;;1502896;77;688;-58
2022/10/25 03:03:46;;;;;;;;;;;23.00;61.80;;;;;;1511849;77;1922;-57
2022/10/25 03:05:47;;;;;;;;;;;23.00;61.80;;;;;;1501503;78;1403;-56
2022/10/25 03:07:49;;;;;;;;;;;23.10;62.00;;;;;;1503617;77;738;-57
2022/10/25 03:09:51;;;;;;;;;;;23.00;62.00;;;;;;1504829;77;756;-56
2022/10/25 03:11:53;;;;;;;;;;;23.10;62.10;;;;;;1503630;77;696;-54
2022/10/25 03:13:55;;;;;;;;;;;23.10;62.10;;;;;;1503671;78;801;-58
2022/10/25 03:15:57;;;;;;;;;;;23.00;62.00;;;;;;1493890;77;1119;-54
2022/10/25 03:17:59;;;;;;;;;;;23.00;62.00;;;;;;1499915;77;740;-57
2022/10/25 03:20:00;;;;;;;;;;;23.00;62.00;;;;;;1510949;77;1535;-58
2022/10/25 03:22:02;;;;;;;;;;;23.00;62.10;;;;;;1500284;77;708;-57
2022/10/25 03:24:06;;;;;;;;;;;23.00;62.10;;;;;;1503481;77;1931;-56
2022/10/25 03:26:07;;;;;;;;;;;23.00;62.10;;;;;;1502084;78;1101;-58
2022/10/25 03:28:09;;;;;;;;;;;23.00;62.30;;;;;;1502415;77;683;-58
2022/10/25 03:30:12;;;;;;;;;;;23.00;62.20;;;;;;1492848;77;695;-58
2022/10/25 03:32:14;;;;;;;;;;;23.00;62.20;;;;;;1504191;77;761;-58
2022/10/25 03:34:16;;;;;;;;;;;23.00;62.10;;;;;;1500797;77;1558;-54
2022/10/25 03:36:18;;;;;;;;;;;22.90;62.20;;;;;;1495920;77;1126;-57
2022/10/25 03:38:19;;;;;;;;;;;23.00;62.10;;;;;;1497404;77;705;-56
2022/10/25 03:40:21;;;;;;;;;;;23.00;62.20;;;;;;1507418;77;780;-54
2022/10/25 03:42:23;;;;;;;;;;;23.00;62.10;;;;;;1505569;77;841;-57
2022/10/25 03:44:25;;;;;;;;;;;23.00;62.30;;;;;;1505219;77;1953;-59
2022/10/25 03:46:27;;;;;;;;;;;23.00;62.20;;;;;;1499285;77;1151;-57
2022/10/25 03:48:29;;;;;;;;;;;23.00;62.20;;;;;;1495659;77;1537;-58
2022/10/25 03:50:31;;;;;;;;;;;23.00;62.10;;;;;;1510111;77;727;-58
2022/10/25 03:52:33;;;;;;;;;;;22.90;62.30;;;;;;1500765;77;760;-56
2022/10/25 03:54:34;;;;;;;;;;;23.00;62.40;;;;;;1505131;78;704;-57
2022/10/25 03:56:36;;;;;;;;;;;22.90;62.30;;;;;;1505095;77;1170;-57
2022/10/25 03:58:38;;;;;;;;;;;23.00;62.30;;;;;;1500227;78;665;-58
2022/10/25 04:00:40;;;;;;;;;;;23.00;62.30;;;;;;1493562;77;712;-58
2022/10/25 04:02:42;;;;;;;;;;;22.90;62.30;;;;;;1512924;77;1596;-58
2022/10/25 04:04:44;;;;;;;;;;;23.00;62.30;;;;;;1506041;77;1946;-58
2022/10/25 04:06:46;;;;;;;;;;;23.00;62.30;;;;;;1504932;77;1130;-54
2022/10/25 04:08:48;;;;;;;;;;;23.00;62.30;;;;;;1506383;77;772;-58
2022/10/25 04:10:49;;;;;;;;;;;23.00;62.40;;;;;;1507293;77;707;-58
2022/10/25 04:12:51;;;;;;;;;;;23.00;62.40;;;;;;1505072;77;730;-53
2022/10/25 04:14:53;;;;;;;;;;;23.00;62.40;;;;;;1504942;77;957;-57
2022/10/25 04:16:55;;;;;;;;;;;23.00;62.40;;;;;;1507793;77;1481;-58
2022/10/25 04:18:57;;;;;;;;;;;23.00;62.40;;;;;;1511549;77;724;-58
2022/10/25 04:20:59;;;;;;;;;;;23.00;62.40;;;;;;1508748;77;762;-58
2022/10/25 04:23:01;;;;;;;;;;;23.00;62.30;;;;;;1494396;77;1923;-56
2022/10/25 04:25:03;;;;;;;;;;;23.00;62.40;;;;;;1506357;77;721;-54
2022/10/25 04:27:05;;;;;;;;;;;23.00;62.40;;;;;;1510019;77;1140;-55
2022/10/25 04:29:07;;;;;;;;;;;23.00;62.30;;;;;;1512687;77;826;-58
2022/10/25 04:31:09;;;;;;;;;;;23.00;62.30;;;;;;1512787;77;1528;-57
2022/10/25 04:33:11;;;;;;;;;;;23.00;62.20;;;;;;1498394;77;767;-57
2022/10/25 04:35:13;;;;;;;;;;;23.00;62.30;;;;;;1496085;77;732;-58
2022/10/25 04:37:15;;;;;;;;;;;23.00;62.40;;;;;;1501063;77;1076;-58
2022/10/25 04:39:17;;;;;;;;;;;23.00;62.40;;;;;;1504689;77;672;-57
2022/10/25 04:41:19;;;;;;;;;;;23.00;62.30;;;;;;1504962;77;781;-56
2022/10/25 04:43:21;;;;;;;;;;;23.00;62.20;;;;;;1509159;77;1931;-57
2022/10/25 04:45:23;;;;;;;;;;;23.00;62.20;;;;;;1506199;77;1552;-55
2022/10/25 04:47:25;;;;;;;;;;;23.00;62.20;;;;;;1497156;77;803;-58
2022/10/25 04:49:26;;;;;;;;;;;23.10;62.30;;;;;;1511472;77;732;-57
2022/10/25 04:51:28;;;;;;;;;;;23.10;62.30;;;;;;1503350;77;738;-56
2022/10/25 04:53:30;;;;;;;;;;;23.20;62.30;;;;;;1504409;77;738;-58
2022/10/25 04:55:32;;;;;;;;;;;23.20;62.00;;;;;;1511380;77;1176;-58
2022/10/25 04:57:34;;;;;;;;;;;23.20;62.00;;;;;;1504307;77;679;-57
2022/10/25 04:59:36;;;;;;;;;;;23.20;62.00;;;;;;1504809;77;1603;-54
2022/10/25 05:01:38;;;;;;;;;;;23.30;61.90;;;;;;1495501;77;758;-58
2022/10/25 05:03:40;;;;;;;;;;;23.30;61.70;;;;;;1506909;77;1941;-58
2022/10/25 05:05:41;;;;;;;;;;;23.30;61.70;;;;;;1506219;77;1159;-59
2022/10/25 05:07:43;;;;;;;;;;;23.30;62.00;;;;;;1494289;77;777;-58
2022/10/25 05:09:45;;;;;;;;;;;23.30;61.90;;;;;;1505123;77;719;-59
2022/10/25 05:11:47;;;;;;;;;;;23.30;61.90;;;;;;1499940;77;773;-57
2022/10/25 05:13:49;;;;;;;;;;;23.40;61.80;;;;;;1505697;77;1532;-57
2022/10/25 05:15:54;;;;;;;;;;;23.50;61.60;;;;;;1503082;77;1144;-59
2022/10/25 05:17:57;;;;;;;;;;;23.30;61.50;;;;;;1494426;77;741;-58
2022/10/25 05:19:58;;;;;;;;;;;23.50;61.50;;;;;;1506820;77;946;-59
2022/10/25 05:22:00;;;;;;;;;;;23.50;61.40;;;;;;1505351;77;738;-59
2022/10/25 05:24:02;;;;;;;;;;;23.50;61.40;;;;;;1503416;77;1941;-59
2022/10/25 05:26:05;;;;;;;;;;;23.50;61.30;;;;;;1489700;77;1104;-57
2022/10/25 05:28:07;;;;;;;;;;;23.50;61.40;;;;;;1515732;77;1883;-59
2022/10/25 05:30:09;;;;;;;;;;;23.40;61.20;;;;;;1496860;77;641;-58
2022/10/25 05:32:11;;;;;;;;;;;23.50;61.40;;;;;;1492830;77;674;-61
2022/10/25 05:34:13;;;;;;;;;;;23.50;61.30;;;;;;1493347;77;766;-57
2022/10/25 05:36:15;;;;;;;;;;;23.50;61.30;;;;;;1504715;77;1136;-59
2022/10/25 05:38:16;;;;;;;;;;;23.50;61.20;;;;;;1505358;77;771;-59
2022/10/25 05:40:18;;;;;;;;;;;23.50;61.20;;;;;;1502102;77;1308;-59
2022/10/25 05:42:20;;;;;;;;;;;23.30;61.20;;;;;;1495336;77;749;-60
2022/10/25 05:44:22;;;;;;;;;;;23.30;61.40;;;;;;1503298;77;1941;-59
2022/10/25 05:46:24;;;;;;;;;;;23.30;61.50;;;;;;1492251;77;1155;-57
2022/10/25 05:48:26;;;;;;;;;;;23.30;61.90;;;;;;1502691;77;785;-55
2022/10/25 05:50:28;;;;;;;;;;;23.40;61.60;;;;;;1503195;77;727;-59
2022/10/25 05:52:30;;;;;;;;;;;23.50;61.50;;;;;;1506954;77;734;-59
2022/10/25 05:54:32;;;;;;;;;;;23.40;61.20;;;;;;1500199;77;1569;-59
2022/10/25 05:56:34;;;;;;;;;;;23.50;61.30;;;;;;1497715;77;1277;-58
2022/10/25 05:58:36;;;;;;;;;;;23.40;61.20;;;;;;1508901;77;833;-59
2022/10/25 06:00:38;;;;;;;;;;;23.40;61.30;;;;;;1497317;77;887;-58
2022/10/25 06:02:39;;;;;;;;;;;23.40;61.30;;;;;;1514334;77;719;-59
2022/10/25 06:04:41;;;;;;;;;;;23.20;61.30;;;;;;1503768;77;1939;-57
2022/10/25 06:06:44;;;;;;;;;;;23.20;61.40;;;;;;1505316;77;1131;-56
2022/10/25 06:08:46;;;;;;;;;;;23.30;61.50;;;;;;1501351;77;1522;-56
2022/10/25 06:10:47;;;;;;;;;;;23.20;61.60;;;;;;1498584;77;745;-59
2022/10/25 06:12:49;;;;;;;;;;;23.20;61.60;;;;;;1505626;77;752;-55
2022/10/25 06:14:51;;;;;;;;;;;23.20;61.60;;;;;;1501484;77;807;-57
2022/10/25 06:16:53;;;;;;;;;;;23.20;61.60;;;;;;1505453;77;1085;-58
2022/10/25 06:18:55;;;;;;;;;;;23.10;61.30;;;;;;1504771;77;741;-59
2022/10/25 06:20:58;;;;;;;;;;;23.00;60.70;;;;;;1501897;77;684;-57
2022/10/25 06:23:00;;;;;;;;;;;23.00;60.50;;;;;;1505640;77;1751;-59
2022/10/25 06:25:02;;;;;;;;;;;23.00;60.90;;;;;;1519681;77;1956;-58
2022/10/25 06:27:04;;;;;;;;;;;23.10;61.00;;;;;;1504675;77;1130;-58
2022/10/25 06:29:06;;;;;;;;;;;23.10;60.70;;;;;;1513333;77;824;-58
2022/10/25 06:31:09;;;;;;;;;;;23.10;60.20;;;;;;1505322;79;670;-59
2022/10/25 06:33:10;;;;;;;;;;;23.10;60.00;;;;;;1498935;77;958;-58
2022/10/25 06:35:12;;;;;;;;;;;23.20;59.80;;;;;;1491999;77;774;-58
2022/10/25 06:37:14;;;;;;;;;;;23.30;59.50;;;;;;1500037;77;1624;-59
2022/10/25 06:39:16;;;;;;;;;;;23.20;59.50;;;;;;1491860;79;884;-55
2022/10/25 06:41:19;;;;;;;;;;;23.30;59.40;;;;;;1511923;77;742;-56
2022/10/25 06:43:21;;;;;;;;;;;23.30;58.90;;;;;;1502616;77;962;-58
2022/10/25 06:45:23;;;;;;;;;;;23.30;58.90;;;;;;1497557;77;1938;-59
2022/10/25 06:47:25;;;;;;;;;;;23.30;58.80;;;;;;1499724;77;632;-58
2022/10/25 06:49:27;;;;;;;;;;;23.30;58.50;;;;;;1504550;77;750;-55
2022/10/25 06:51:29;;;;;;;;;;;23.30;58.30;;;;;;1504156;77;1572;-54
2022/10/25 06:53:31;;;;;;;;;;;23.30;58.30;;;;;;1505605;77;812;-58
2022/10/25 06:55:33;;;;;;;;;;;23.30;58.10;;;;;;1509377;77;1097;-56
2022/10/25 06:57:35;;;;;;;;;;;23.30;58.00;;;;;;1505262;77;774;-58
2022/10/25 06:59:37;;;;;;;;;;;23.30;58.00;;;;;;1506011;78;749;-58
2022/10/25 07:01:39;;;;;;;;;;;23.30;57.90;;;;;;1497411;77;779;-58
2022/10/25 07:03:41;;;;;;;;;;;23.30;57.70;;;;;;1495998;77;776;-58
2022/10/25 07:05:43;;;;;;;;;;;23.30;57.50;;;;;;1510429;77;1946;-58
2022/10/25 07:07:45;;;;;;;;;;;23.20;57.30;;;;;;1504506;77;688;-58
2022/10/25 07:09:46;;;;;;;;;;;23.30;57.40;;;;;;1498978;77;706;-58
2022/10/25 07:11:49;;;;;;;;;;;23.30;57.30;;;;;;1500703;77;731;-53
2022/10/25 07:13:50;;;;;;;;;;;23.20;57.20;;;;;;1497348;77;750;-57
2022/10/25 07:15:52;;;;;;;;;;;23.20;57.20;;;;;;1502974;77;1104;-59
2022/10/25 07:17:54;;;;;;;;;;;23.20;57.20;;;;;;1501891;77;771;-58
2022/10/25 07:19:56;;;;;;;;;;;23.20;57.10;;;;;;1501469;77;1633;-58
2022/10/25 07:21:58;;;;;;;;;;;23.30;57.10;;;;;;1505102;77;734;-59
2022/10/25 07:24:00;;;;;;;;;;;23.30;57.00;;;;;;1501658;78;1942;-59
2022/10/25 07:26:02;;;;;;;;;;;23.20;56.90;;;;;;1501378;77;1111;-58
2022/10/25 07:28:04;;;;;;;;;;;23.20;56.90;;;;;;1509041;77;709;-58
2022/10/25 07:30:06;;;;;;;;;;;23.30;56.80;;;;;;1501307;78;786;-57
2022/10/25 07:32:08;;;;;;;;;;;23.30;56.60;;;;;;1509608;77;920;-56
2022/10/25 07:34:12;;;;;;;;;;;23.20;56.50;;;;;;1506283;77;1552;-57
2022/10/25 07:36:14;;;;;;;;;;;23.30;56.70;;;;;;1514426;77;1135;-58
2022/10/25 07:38:16;;;;;;;;;;;23.20;56.40;;;;;;1505288;77;782;-59
2022/10/25 07:40:17;;;;;;;;;;;23.20;56.40;;;;;;1499316;78;794;-55
2022/10/25 07:42:19;;;;;;;;;;;23.20;56.50;;;;;;1505794;77;813;-57
2022/10/25 07:44:21;;;;;;;;;;;23.20;56.50;;;;;;1504005;77;1914;-58
2022/10/25 07:46:23;;;;;;;;;;;23.20;56.50;;;;;;1503962;77;1179;-56
2022/10/25 07:48:25;;;;;;;;;;;23.20;56.70;;;;;;1502555;77;1502;-59
2022/10/25 07:50:27;;;;;;;;;;;23.20;56.40;;;;;;1496229;77;738;-57
2022/10/25 07:52:29;;;;;;;;;;;23.20;56.50;;;;;;1506195;77;724;-58
2022/10/25 07:54:31;;;;;;;;;;;23.20;56.20;;;;;;1488744;77;709;-58
2022/10/25 07:56:32;;;;;;;;;;;23.20;56.20;;;;;;1487395;77;1185;-59
2022/10/25 07:58:34;;;;;;;;;;;23.10;56.30;;;;;;1503976;77;786;-58
2022/10/25 08:00:36;;;;;;;;;;;23.10;56.40;;;;;;1492091;77;662;-55
2022/10/25 08:02:38;;;;;;;;;;;23.10;56.60;;;;;;1495751;77;1669;-55
2022/10/25 08:04:40;;;;;;;;;;;23.20;56.50;;;;;;1500648;77;1931;-57
2022/10/25 08:06:42;;;;;;;;;;;23.20;56.50;;;;;;1503487;77;1129;-56
2022/10/25 08:08:44;;;;;;;;;;;23.20;56.50;;;;;;1515173;77;749;-58
2022/10/25 08:10:46;;;;;;;;;;;23.30;56.50;;;;;;1501717;77;737;-58
2022/10/25 08:12:48;;;;;;;;;;;23.30;56.60;;;;;;1504482;77;660;-58
2022/10/25 08:14:50;;;;;;;;;;;23.40;56.50;;;;;;1494497;77;724;-58
2022/10/25 08:16:52;;;;;;;;;;;23.50;56.50;;;;;;1504052;77;1685;-58
2022/10/25 08:18:54;;;;;;;;;;;23.50;56.40;;;;;;1504129;77;667;-57
2022/10/25 08:20:55;;;;;;;;;;;23.40;56.30;;;;;;1506231;77;798;-55
2022/10/25 08:22:58;;;;;;;;;;;23.50;56.60;;;;;;1500770;77;734;-58
2022/10/25 08:25:00;;;;;;;;;;;23.50;56.30;;;;;;1498601;77;1938;-59
2022/10/25 08:27:01;;;;;;;;;;;23.50;56.20;;;;;;1511595;77;1141;-57
2022/10/25 08:29:03;;;;;;;;;;;23.60;56.10;;;;;;1514314;77;1546;-59
2022/10/25 08:31:05;;;;;;;;;;;23.50;56.10;;;;;;1507691;77;787;-58
2022/10/25 08:33:07;;;;;;;;;;;23.60;55.80;;;;;;1499845;77;861;-58
2022/10/25 08:35:09;;;;;;;;;;;23.60;55.80;;;;;;1509285;77;759;-58
2022/10/25 08:37:11;;;;;;;;;;;23.60;55.70;;;;;;1500550;79;1125;-56
2022/10/25 08:39:13;;;;;;;;;;;23.70;55.60;;;;;;1499709;77;743;-58
2022/10/25 08:41:17;;;;;;;;;;;23.70;55.30;;;;;;1505012;77;791;-55
2022/10/25 08:43:23;;;;;;;;;;;23.60;55.40;;;;;;1510973;77;1535;-57
2022/10/25 08:45:27;;;;;;;;;;;23.60;55.30;;;;;;1507857;77;1953;-58
2022/10/25 08:47:33;;;;;;;;;;;23.60;55.10;;;;;;1504758;77;710;-58
2022/10/25 08:49:53;;;;;;;;;;;23.70;55.10;;;;;;1508607;77;786;-59
2022/10/25 08:51:54;;;;;;;;;;;23.70;54.90;;;;;;1500212;77;775;-58
2022/10/25 08:53:58;;;;;;;;;;;23.70;54.80;;;;;;1504147;77;763;-56
2022/10/25 08:56:00;;;;;;;;;;;23.80;54.80;;;;;;1501339;77;1109;-59
2022/10/25 08:58:02;;;;;;;;;;;23.70;54.40;;;;;;1507337;77;1537;-58
2022/10/25 09:00:09;;;;;;;;;;;23.80;54.40;;;;;;1506125;77;732;-59
2022/10/25 09:02:10;;;;;;;;;;;23.70;53.90;;;;;;1504630;77;1618;-58
2022/10/25 09:04:14;;;;;;;;;;;23.70;54.30;;;;;;1493571;77;1054;-59
2022/10/25 09:06:26;;;;;;;;;;;23.70;54.30;;;;;;1506151;77;1919;-58
2022/10/25 09:08:46;;;;;;;;;;;23.80;54.20;;;;;;1504836;78;1781;-59
2022/10/25 09:10:50;;;;;;;;;;;23.70;53.90;;;;;;1504206;77;835;-59
2022/10/25 09:12:53;;;;;;;;;;;23.80;54.00;;;;;;1506385;77;1586;-56
2022/10/25 09:15:06;;;;;;;;;;;23.80;53.80;;;;;;1503996;77;1951;-58
2022/10/25 09:17:20;;;;;;;;;;;23.80;53.90;;;;;;1502576;77;1890;-54
2022/10/25 09:19:27;;;;;;;;;;;23.80;53.80;;;;;;1500717;77;796;-56
2022/10/25 09:21:39;;;;;;;;;;;23.90;53.70;;;;;;1505715;77;2075;-58
2022/10/25 09:23:41;;;;;;;;;;;23.90;53.50;;;;;;1504964;77;718;-56
2022/10/25 09:25:47;;;;;;;;;;;23.80;53.30;;;;;;1505002;77;1918;-57
2022/10/25 09:27:51;;;;;;;;;;;23.80;53.00;;;;;;1503965;77;662;-57
2022/10/25 09:30:00;;;;;;;;;;;23.90;53.10;;;;;;1502842;77;714;-54
2022/10/25 09:32:02;;;;;;;;;;;23.90;52.90;;;;;;1504790;77;732;-58
2022/10/25 09:34:05;;;;;;;;;;;23.90;52.90;;;;;;1503733;77;806;-57
2022/10/25 09:36:07;;;;;;;;;;;23.90;52.70;;;;;;1507779;77;1164;-58
2022/10/25 09:38:14;;;;;;;;;;;23.90;52.70;;;;;;1502531;77;817;-58
2022/10/25 09:40:17;;;;;;;;;;;23.90;52.80;;;;;;1502372;77;1537;-57
2022/10/25 09:42:21;;;;;;;;;;;23.80;52.50;;;;;;1493344;78;1821;-58
2022/10/25 09:44:24;;;;;;;;;;;23.80;52.70;;;;;;1504286;77;795;-57
2022/10/25 09:46:37;;;;;;;;;;;23.90;52.70;;;;;;1504484;77;1925;-57
2022/10/25 09:48:41;;;;;;;;;;;23.90;52.60;;;;;;1504899;77;724;-58
2022/10/25 09:50:48;;;;;;;;;;;23.80;52.00;;;;;;1499752;77;745;-58
2022/10/25 09:53:08;;;;;;;;;;;23.80;51.70;;;;;;1498159;77;730;-58
2022/10/25 09:55:28;;;;;;;;;;;23.70;51.50;;;;;;1498030;77;1668;-58
2022/10/25 09:57:30;;;;;;;;;;;23.80;51.90;;;;;;1498115;79;808;-58
2022/10/25 09:59:32;;;;;;;;;;;23.70;51.80;;;;;;1508717;77;780;-58
2022/10/25 10:01:34;;;;;;;;;;;23.80;51.80;;;;;;1510921;77;781;-57
2022/10/25 10:03:36;;;;;;;;;;;23.70;51.80;;;;;;1506379;77;727;-58
2022/10/25 10:05:39;;;;;;;;;;;23.80;51.70;;;;;;1500748;78;1953;-57
2022/10/25 10:07:41;;;;;;;;;;;23.80;51.50;;;;;;1507741;77;1567;-57
2022/10/25 10:09:42;;;;;;;;;;;23.90;51.40;;;;;;1506526;77;729;-57
2022/10/25 10:11:45;;;;;;;;;;;23.90;51.50;;;;;;1514679;77;660;-57
2022/10/25 10:13:57;;;;;;;;;;;23.90;51.40;;;;;;1502517;77;1000;-57
2022/10/25 10:16:00;;;;;;;;;;;23.90;51.30;;;;;;1505548;77;1113;-57
2022/10/25 10:18:25;;;;;;;;;;;23.90;51.30;;;;;;1503636;77;788;-56
2022/10/25 10:20:24;;;;;;;;;;;23.90;51.20;;;;;;1501222;77;1622;-57
2022/10/25 10:22:26;;;;;;;;;;;23.90;51.10;;;;;;1503436;78;1560;-58
2022/10/25 10:24:29;;;;;;;;;;;23.90;51.20;;;;;;1503958;77;724;-58
2022/10/25 10:26:31;;;;;;;;;;;23.90;51.20;;;;;;1502393;77;1941;-58
2022/10/25 10:28:33;;;;;;;;;;;24.00;51.20;;;;;;1504535;77;743;-58
2022/10/25 10:30:37;;;;;;;;;;;23.90;51.00;;;;;;1503028;77;778;-58
2022/10/25 10:32:39;;;;;;;;;;;23.90;51.00;;;;;;1506686;77;1642;-58
2022/10/25 10:34:44;;;;;;;;;;;23.90;50.90;;;;;;1507405;77;784;-57
2022/10/25 10:36:48;;;;;;;;;;;23.90;51.10;;;;;;1504915;77;1583;-57
2022/10/25 10:38:49;;;;;;;;;;;23.90;51.10;;;;;;1502600;77;1684;-57
2022/10/25 10:40:52;;;;;;;;;;;23.80;51.30;;;;;;1504238;77;849;-58
2022/10/25 10:44:21;;;;;;;;;;;23.80;51.30;;;;;;1618643;72;648;-57
2022/10/25 10:46:24;;;;;;;;;;;23.80;51.40;;;;;;1583184;73;1196;-57
2022/10/25 10:48:26;;;;;;;;;;;23.70;51.60;;;;;;1561562;75;738;-57
2022/10/25 10:50:31;;;;;;;;;;;23.70;51.60;;;;;;1560167;75;1519;-57
2022/10/25 10:52:34;;;;;;;;;;;23.60;51.60;;;;;;1558633;75;1774;-57
2022/10/25 10:54:37;;;;;;;;;;;23.60;51.80;;;;;;1551576;75;1988;-57
2022/10/25 10:56:39;;;;;;;;;;;23.50;51.80;;;;;;1567484;75;1137;-57
2022/10/25 10:58:41;;;;;;;;;;;23.40;51.90;;;;;;1567108;75;709;-58
2022/10/25 11:00:59;;;;;;;;;;;23.40;52.20;;;;;;1536320;76;790;-57
2022/10/25 11:03:01;;;;;;;;;;;23.40;52.10;;;;;;1555629;75;1916;-58
2022/10/25 11:05:05;;;;;;;;;;;23.40;52.30;;;;;;1560481;75;1386;-57
2022/10/25 11:07:13;;;;;;;;;;;23.30;52.30;;;;;;1556436;74;1151;-57
2022/10/25 11:09:16;;;;;;;;;;;23.20;52.40;;;;;;1569179;74;774;-57
2022/10/25 11:11:19;;;;;;;;;;;23.30;52.60;;;;;;1567951;75;784;-57
2022/10/25 11:13:22;;;;;;;;;;;23.20;52.50;;;;;;1560780;75;688;-58
2022/10/25 11:15:28;;;;;;;;;;;23.30;52.80;;;;;;1561598;75;1113;-57
2022/10/25 11:17:29;;;;;;;;;;;23.20;52.70;;;;;;1560997;75;1661;-57
2022/10/25 11:19:35;;;;;;;;;;;23.20;52.70;;;;;;1562960;74;1731;-58
2022/10/25 11:21:55;;;;;;;;;;;23.20;52.80;;;;;;1561008;75;1741;-58
2022/10/25 11:24:01;;;;;;;;;;;23.30;52.80;;;;;;1560996;75;1938;-57
2022/10/25 11:26:20;;;;;;;;;;;23.30;52.70;;;;;;1559033;75;1800;-58
2022/10/25 11:28:38;;;;;;;;;;;23.30;52.60;;;;;;1561236;75;1732;-58
2022/10/25 11:30:42;;;;;;;;;;;23.30;52.60;;;;;;1565236;75;759;-58
2022/10/25 11:33:02;;;;;;;;;;;23.20;52.60;;;;;;1560447;75;1921;-58
2022/10/25 11:35:17;;;;;;;;;;;23.20;52.60;;;;;;1560898;75;727;-58
2022/10/25 11:37:27;;;;;;;;;;;23.20;52.60;;;;;;1563213;75;1086;-57
2022/10/25 11:39:31;;;;;;;;;;;23.20;52.70;;;;;;1555315;75;736;-57
2022/10/25 11:41:47;;;;;;;;;;;23.20;52.80;;;;;;1553674;75;1745;-58
2022/10/25 11:43:50;;;;;;;;;;;23.30;52.80;;;;;;1560179;74;1947;-57
2022/10/25 11:46:03;;;;;;;;;;;23.20;52.80;;;;;;1555665;75;1939;-57
2022/10/25 11:48:23;;;;;;;;;;;23.20;53.00;;;;;;1550083;75;1820;-58
2022/10/25 11:51:13;;;;;;;;;;;23.20;52.80;;;;;;1591229;72;610;-58
2022/10/25 11:53:20;;;;;;;;;;;23.20;52.60;;;;;;1582241;74;709;-60
2022/10/25 11:55:33;;;;;;;;;;;23.40;52.40;;;;;;1587686;74;1518;-57
2022/10/25 11:57:42;;;;;;;;;;;23.50;52.30;;;;;;1556073;76;750;-57
2022/10/25 12:00:01;;;;;;;;;;;23.40;52.00;;;;;;1542842;75;1011;-57
2022/10/25 12:02:04;;;;;;;;;;;23.50;52.10;;;;;;1548347;76;777;-57
2022/10/25 12:04:17;;;;;;;;;;;23.40;51.80;;;;;;1554868;76;1920;-58
2022/10/25 12:06:27;;;;;;;;;;;23.50;51.90;;;;;;1559772;76;1144;-57
2022/10/25 12:08:47;;;;;;;;;;;23.50;51.80;;;;;;1558366;75;1665;-56
2022/10/25 12:10:49;;;;;;;;;;;23.50;51.70;;;;;;1551057;76;1956;-57
2022/10/25 12:12:53;;;;;;;;;;;23.40;51.70;;;;;;1554402;75;756;-56
2022/10/25 12:14:55;;;;;;;;;;;23.40;51.70;;;;;;1549796;76;1646;-57
2022/10/25 12:16:57;;;;;;;;;;;23.40;51.80;;;;;;1552924;76;1153;-57
2022/10/25 12:19:13;;;;;;;;;;;23.40;51.70;;;;;;1561713;76;745;-58